sensor_id;sensor_type;location;lat;lon;timestamp;pressure;altitude;pressure_sealevel;temperature;humidity
71195;BME280;58908;51.426;7.714;2023-07-31T00:02:11;99302.53;;;15.47;100.00
71195;BME280;58908;51.426;7.714;2023-07-31T00:04:38;99305.44;;;15.44;100.00
71195;BME280;58908;51.426;7.714;2023-07-31T00:07:04;99297.22;;;15.47;100.00
71195;BME280;58908;51.426;7.714;2023-07-31T00:09:31;99299.16;;;15.45;100.00
71195;BME280;58908;51.426;7.714;2023-07-31T00:11:59;99292.75;;;15.48;100.00
71195;BME280;58908;51.426;7.714;2023-07-31T00:14:25;99285.88;;;15.45;100.00
71195;BME280;58908;51.426;7.714;2023-07-31T00:16:52;99290.22;;;15.46;100.00
71195;BME280;58908;51.426;7.714;2023-07-31T00:19:18;99280.44;;;15.47;100.00
71195;BME280;58908;51.426;7.714;2023-07-31T00:21:44;99285.16;;;15.43;100.00
71195;BME280;58908;51.426;7.714;2023-07-31T00:24:11;99289.13;;;15.49;100.00
71195;BME280;58908;51.426;7.714;2023-07-31T00:26:37;99283.81;;;15.49;100.00
71195;BME280;58908;51.426;7.714;2023-07-31T00:29:12;99281.41;;;15.46;100.00
71195;BME280;58908;51.426;7.714;2023-07-31T00:31:38;99272.38;;;15.37;100.00
71195;BME280;58908;51.426;7.714;2023-07-31T00:34:05;99281.31;;;15.36;100.00
71195;BME280;58908;51.426;7.714;2023-07-31T00:36:31;99277.97;;;15.34;100.00
71195;BME280;58908;51.426;7.714;2023-07-31T00:38:57;99276.97;;;15.35;100.00
71195;BME280;58908;51.426;7.714;2023-07-31T00:41:24;99272.53;;;15.36;100.00
71195;BME280;58908;51.426;7.714;2023-07-31T00:43:50;99269.97;;;15.34;100.00
71195;BME280;58908;51.426;7.714;2023-07-31T00:46:18;99264.81;;;15.33;100.00
71195;BME280;58908;51.426;7.714;2023-07-31T00:48:44;99268.03;;;15.36;100.00
71195;BME280;58908;51.426;7.714;2023-07-31T00:51:11;99263.97;;;15.32;100.00
71195;BME280;58908;51.426;7.714;2023-07-31T00:53:38;99270.84;;;15.35;100.00
71195;BME280;58908;51.426;7.714;2023-07-31T00:56:04;99269.00;;;15.35;100.00
71195;BME280;58908;51.426;7.714;2023-07-31T00:58:31;99267.47;;;15.33;100.00
71195;BME280;58908;51.426;7.714;2023-07-31T01:00:58;99267.06;;;15.37;100.00
71195;BME280;58908;51.426;7.714;2023-07-31T01:03:25;99266.22;;;15.37;100.00
71195;BME280;58908;51.426;7.714;2023-07-31T01:05:54;99261.31;;;15.32;100.00
71195;BME280;58908;51.426;7.714;2023-07-31T01:08:25;99266.22;;;15.37;100.00
71195;BME280;58908;51.426;7.714;2023-07-31T01:10:58;99264.41;;;15.37;100.00
71195;BME280;58908;51.426;7.714;2023-07-31T01:13:28;99252.34;;;15.33;100.00
71195;BME280;58908;51.426;7.714;2023-07-31T01:15:55;99247.63;;;15.37;100.00
71195;BME280;58908;51.426;7.714;2023-07-31T01:18:21;99247.75;;;15.35;100.00
71195;BME280;58908;51.426;7.714;2023-07-31T01:20:51;99268.03;;;15.36;100.00
71195;BME280;58908;51.426;7.714;2023-07-31T01:23:31;99258.66;;;15.32;100.00
71195;BME280;58908;51.426;7.714;2023-07-31T01:26:04;99251.25;;;15.36;100.00
71195;BME280;58908;51.426;7.714;2023-07-31T01:28:37;99258.25;;;15.37;100.00
71195;BME280;58908;51.426;7.714;2023-07-31T01:31:04;99247.75;;;15.35;100.00
71195;BME280;58908;51.426;7.714;2023-07-31T01:33:33;99259.56;;;15.42;100.00
71195;BME280;58908;51.426;7.714;2023-07-31T01:36:00;99260.38;;;15.43;100.00
71195;BME280;58908;51.426;7.714;2023-07-31T01:38:27;99258.59;;;15.43;100.00
71195;BME280;58908;51.426;7.714;2023-07-31T01:40:53;99247.38;;;15.40;100.00
71195;BME280;58908;51.426;7.714;2023-07-31T01:43:21;99258.25;;;15.37;100.00
71195;BME280;58908;51.426;7.714;2023-07-31T01:45:49;99261.25;;;15.43;100.00
71195;BME280;58908;51.426;7.714;2023-07-31T01:48:15;99260.38;;;15.43;100.00
71195;BME280;58908;51.426;7.714;2023-07-31T01:50:42;99271.41;;;15.38;100.00
71195;BME280;58908;51.426;7.714;2023-07-31T01:53:08;99270.03;;;15.44;100.00
71195;BME280;58908;51.426;7.714;2023-07-31T01:55:34;99264.72;;;15.44;100.00
71195;BME280;58908;51.426;7.714;2023-07-31T01:58:00;99258.25;;;15.37;100.00
71195;BME280;58908;51.426;7.714;2023-07-31T02:00:28;99258.53;;;15.34;100.00
71195;BME280;58908;51.426;7.714;2023-07-31T02:02:54;99252.69;;;15.40;100.00
71195;BME280;58908;51.426;7.714;2023-07-31T02:05:21;99245.69;;;15.39;100.00
71195;BME280;58908;51.426;7.714;2023-07-31T02:07:47;99257.41;;;15.36;100.00
71195;BME280;58908;51.426;7.714;2023-07-31T02:10:13;99253.25;;;15.43;100.00
71195;BME280;58908;51.426;7.714;2023-07-31T02:12:40;99244.69;;;15.40;100.00
71195;BME280;58908;51.426;7.714;2023-07-31T02:15:06;99252.69;;;15.40;100.00
71195;BME280;58908;51.426;7.714;2023-07-31T02:17:34;99253.16;;;15.45;100.00
71195;BME280;58908;51.426;7.714;2023-07-31T02:20:00;99252.28;;;15.44;100.00
71195;BME280;58908;51.426;7.714;2023-07-31T02:22:26;99245.34;;;15.32;100.00
71195;BME280;58908;51.426;7.714;2023-07-31T02:24:53;99244.59;;;15.41;100.00
71195;BME280;58908;51.426;7.714;2023-07-31T02:27:19;99248.47;;;15.37;100.00
71195;BME280;58908;51.426;7.714;2023-07-31T02:29:49;99245.09;;;15.35;100.00
71195;BME280;58908;51.426;7.714;2023-07-31T02:32:18;99244.00;;;15.38;100.00
71195;BME280;58908;51.426;7.714;2023-07-31T02:34:46;99240.25;;;15.40;100.00
71195;BME280;58908;51.426;7.714;2023-07-31T02:37:12;99244.69;;;15.40;100.00
71195;BME280;58908;51.426;7.714;2023-07-31T02:39:38;99242.81;;;15.31;100.00
71195;BME280;58908;51.426;7.714;2023-07-31T02:42:05;99243.41;;;15.34;100.00
71195;BME280;58908;51.426;7.714;2023-07-31T02:44:34;99239.94;;;15.34;100.00
71195;BME280;58908;51.426;7.714;2023-07-31T02:47:00;99240.63;;;15.36;100.00
71195;BME280;58908;51.426;7.714;2023-07-31T02:49:31;99238.09;;;15.34;100.00
71195;BME280;58908;51.426;7.714;2023-07-31T02:51:58;99244.97;;;15.37;100.00
71195;BME280;58908;51.426;7.714;2023-07-31T02:54:24;99238.56;;;15.39;100.00
71195;BME280;58908;51.426;7.714;2023-07-31T02:56:54;99233.38;;;15.38;100.00
71195;BME280;58908;51.426;7.714;2023-07-31T02:59:20;99230.38;;;15.31;100.00
71195;BME280;58908;51.426;7.714;2023-07-31T03:01:46;99235.47;;;15.44;100.00
71195;BME280;58908;51.426;7.714;2023-07-31T03:04:13;99233.38;;;15.38;100.00
71195;BME280;58908;51.426;7.714;2023-07-31T03:06:39;99225.38;;;15.38;100.00
71195;BME280;58908;51.426;7.714;2023-07-31T03:09:06;99226.09;;;15.40;100.00
71195;BME280;58908;51.426;7.714;2023-07-31T03:11:33;99235.31;;;15.36;100.00
71195;BME280;58908;51.426;7.714;2023-07-31T03:13:59;99227.50;;;15.44;100.00
71195;BME280;58908;51.426;7.714;2023-07-31T03:16:25;99225.81;;;15.43;100.00
71195;BME280;58908;51.426;7.714;2023-07-31T03:18:51;99215.94;;;15.45;100.00
71195;BME280;58908;51.426;7.714;2023-07-31T03:21:18;99225.97;;;15.41;100.00
71195;BME280;58908;51.426;7.714;2023-07-31T03:23:44;99221.75;;;15.39;100.00
71195;BME280;58908;51.426;7.714;2023-07-31T03:26:11;99220.91;;;15.38;100.00
71195;BME280;58908;51.426;7.714;2023-07-31T03:28:38;99214.50;;;15.41;100.00
71195;BME280;58908;51.426;7.714;2023-07-31T03:31:04;99215.06;;;15.44;100.00
71195;BME280;58908;51.426;7.714;2023-07-31T03:33:31;99217.16;;;15.41;100.00
71195;BME280;58908;51.426;7.714;2023-07-31T03:35:57;99220.28;;;15.46;100.00
71195;BME280;58908;51.426;7.714;2023-07-31T03:38:23;99216.88;;;15.44;100.00
71195;BME280;58908;51.426;7.714;2023-07-31T03:40:49;99197.19;;;15.46;100.00
71195;BME280;58908;51.426;7.714;2023-07-31T03:43:17;99207.41;;;15.51;100.00
71195;BME280;58908;51.426;7.714;2023-07-31T03:45:43;99211.44;;;15.45;100.00
71195;BME280;58908;51.426;7.714;2023-07-31T03:48:10;99204.31;;;15.46;100.00
71195;BME280;58908;51.426;7.714;2023-07-31T03:50:36;99204.31;;;15.46;100.00
71195;BME280;58908;51.426;7.714;2023-07-31T03:53:02;99209.41;;;15.58;100.00
71195;BME280;58908;51.426;7.714;2023-07-31T03:55:28;99211.09;;;15.59;100.00
71195;BME280;58908;51.426;7.714;2023-07-31T03:57:55;99206.38;;;15.63;100.00
71195;BME280;58908;51.426;7.714;2023-07-31T04:00:22;99202.78;;;15.73;100.00
71195;BME280;58908;51.426;7.714;2023-07-31T04:02:49;99201.34;;;15.69;100.00
71195;BME280;58908;51.426;7.714;2023-07-31T04:05:15;99194.94;;;15.72;100.00
71195;BME280;58908;51.426;7.714;2023-07-31T04:07:41;99194.97;;;15.81;100.00
71195;BME280;58908;51.426;7.714;2023-07-31T04:10:07;99202.53;;;15.76;100.00
71195;BME280;58908;51.426;7.714;2023-07-31T04:12:34;99199.75;;;15.78;100.00
71195;BME280;58908;51.426;7.714;2023-07-31T04:15:00;99195.56;;;15.85;100.00
71195;BME280;58908;51.426;7.714;2023-07-31T04:17:28;99193.66;;;15.96;100.00
71195;BME280;58908;51.426;7.714;2023-07-31T04:19:54;99201.72;;;15.85;100.00
71195;BME280;58908;51.426;7.714;2023-07-31T04:22:20;99192.22;;;15.92;100.00
71195;BME280;58908;51.426;7.714;2023-07-31T04:24:47;99198.97;;;15.96;100.00
71195;BME280;58908;51.426;7.714;2023-07-31T04:27:13;99194.34;;;15.98;100.00
71195;BME280;58908;51.426;7.714;2023-07-31T04:29:39;99194.47;;;15.97;100.00
71195;BME280;58908;51.426;7.714;2023-07-31T04:32:07;99191.09;;;15.95;100.00
71195;BME280;58908;51.426;7.714;2023-07-31T04:34:35;99187.53;;;16.05;100.00
71195;BME280;58908;51.426;7.714;2023-07-31T04:37:01;99192.00;;;16.14;100.00
71195;BME280;58908;51.426;7.714;2023-07-31T04:39:27;99196.41;;;16.25;100.00
71195;BME280;58908;51.426;7.714;2023-07-31T04:41:53;99189.38;;;16.24;100.00
71195;BME280;58908;51.426;7.714;2023-07-31T04:44:20;99186.44;;;16.17;100.00
71195;BME280;58908;51.426;7.714;2023-07-31T04:46:46;99187.84;;;16.21;100.00
71195;BME280;58908;51.426;7.714;2023-07-31T04:49:12;99196.91;;;16.19;100.00
71195;BME280;58908;51.426;7.714;2023-07-31T04:51:40;99190.78;;;16.18;100.00
71195;BME280;58908;51.426;7.714;2023-07-31T04:54:06;99190.91;;;16.26;100.00
71195;BME280;58908;51.426;7.714;2023-07-31T04:56:33;99181.69;;;16.30;100.00
71195;BME280;58908;51.426;7.714;2023-07-31T04:58:59;99182.44;;;16.42;100.00
71195;BME280;58908;51.426;7.714;2023-07-31T05:01:25;99174.81;;;16.28;100.00
71195;BME280;58908;51.426;7.714;2023-07-31T05:03:51;99177.06;;;16.32;100.00
71195;BME280;58908;51.426;7.714;2023-07-31T05:06:18;99177.34;;;16.29;100.00
71195;BME280;58908;51.426;7.714;2023-07-31T05:08:47;99177.47;;;16.28;100.00
71195;BME280;58908;51.426;7.714;2023-07-31T05:11:13;99173.00;;;16.28;100.00
71195;BME280;58908;51.426;7.714;2023-07-31T05:13:39;99168.81;;;16.35;100.00
71195;BME280;58908;51.426;7.714;2023-07-31T05:16:05;99174.13;;;16.26;100.00
71195;BME280;58908;51.426;7.714;2023-07-31T05:18:32;99169.38;;;16.29;100.00
71195;BME280;58908;51.426;7.714;2023-07-31T05:20:58;99167.53;;;16.20;100.00
71195;BME280;58908;51.426;7.714;2023-07-31T05:23:24;99180.28;;;16.26;100.00
71195;BME280;58908;51.426;7.714;2023-07-31T05:25:52;99169.63;;;16.26;100.00
71195;BME280;58908;51.426;7.714;2023-07-31T05:28:18;99172.03;;;16.29;100.00
71195;BME280;58908;51.426;7.714;2023-07-31T05:30:45;99160.66;;;16.18;100.00
71195;BME280;58908;51.426;7.714;2023-07-31T05:33:11;99164.31;;;16.26;100.00
71195;BME280;58908;51.426;7.714;2023-07-31T05:35:37;99152.66;;;16.27;100.00
71195;BME280;58908;51.426;7.714;2023-07-31T05:38:03;99149.34;;;16.35;100.00
71195;BME280;58908;51.426;7.714;2023-07-31T05:40:32;99154.53;;;16.36;100.00
71195;BME280;58908;51.426;7.714;2023-07-31T05:43:00;99153.72;;;16.45;100.00
71195;BME280;58908;51.426;7.714;2023-07-31T05:45:26;99147.44;;;16.56;100.00
71195;BME280;58908;51.426;7.714;2023-07-31T05:47:52;99152.19;;;16.62;100.00
71195;BME280;58908;51.426;7.714;2023-07-31T05:50:18;99144.34;;;16.60;100.00
71195;BME280;58908;51.426;7.714;2023-07-31T05:52:44;99143.66;;;16.68;100.00
71195;BME280;58908;51.426;7.714;2023-07-31T05:55:11;99136.50;;;16.68;100.00
71195;BME280;58908;51.426;7.714;2023-07-31T05:57:37;99134.41;;;16.72;100.00
71195;BME280;58908;51.426;7.714;2023-07-31T06:00:07;99134.97;;;16.75;100.00
71195;BME280;58908;51.426;7.714;2023-07-31T06:02:34;99129.06;;;16.72;100.00
71195;BME280;58908;51.426;7.714;2023-07-31T06:05:01;99123.47;;;16.65;100.00
71195;BME280;58908;51.426;7.714;2023-07-31T06:07:29;99125.00;;;16.68;100.00
71195;BME280;58908;51.426;7.714;2023-07-31T06:09:55;99121.19;;;16.70;100.00
71195;BME280;58908;51.426;7.714;2023-07-31T06:12:22;99107.03;;;16.79;100.00
71195;BME280;58908;51.426;7.714;2023-07-31T06:14:50;99112.38;;;16.79;100.00
71195;BME280;58908;51.426;7.714;2023-07-31T06:17:17;99109.16;;;16.76;100.00
71195;BME280;58908;51.426;7.714;2023-07-31T06:19:44;99112.66;;;16.86;100.00
71195;BME280;58908;51.426;7.714;2023-07-31T06:22:10;99106.47;;;16.76;100.00
71195;BME280;58908;51.426;7.714;2023-07-31T06:24:37;99101.44;;;16.73;100.00
71195;BME280;58908;51.426;7.714;2023-07-31T06:27:03;99093.59;;;16.71;100.00
71195;BME280;58908;51.426;7.714;2023-07-31T06:29:30;99107.47;;;16.65;100.00
71195;BME280;58908;51.426;7.714;2023-07-31T06:31:57;99104.94;;;16.64;100.00
71195;BME280;58908;51.426;7.714;2023-07-31T06:34:24;99108.88;;;16.69;100.00
71195;BME280;58908;51.426;7.714;2023-07-31T06:36:51;99108.03;;;16.69;100.00
71195;BME280;58908;51.426;7.714;2023-07-31T06:39:17;99098.78;;;16.73;100.00
71195;BME280;58908;51.426;7.714;2023-07-31T06:41:43;99107.47;;;16.75;100.00
71195;BME280;58908;51.426;7.714;2023-07-31T06:44:09;99093.72;;;16.79;100.00
71195;BME280;58908;51.426;7.714;2023-07-31T06:46:36;99091.50;;;16.84;100.00
71195;BME280;58908;51.426;7.714;2023-07-31T06:49:02;99085.88;;;16.87;100.00
71195;BME280;58908;51.426;7.714;2023-07-31T06:51:30;99087.41;;;16.90;100.00
71195;BME280;58908;51.426;7.714;2023-07-31T06:53:56;99078.28;;;16.92;100.00
71195;BME280;58908;51.426;7.714;2023-07-31T06:56:23;99075.09;;;16.89;100.00
71195;BME280;58908;51.426;7.714;2023-07-31T06:58:51;99081.34;;;17.06;100.00
71195;BME280;58908;51.426;7.714;2023-07-31T07:01:17;99085.72;;;16.98;100.00
71195;BME280;58908;51.426;7.714;2023-07-31T07:03:43;99084.47;;;16.92;100.00
71195;BME280;58908;51.426;7.714;2023-07-31T07:06:09;99102.97;;;16.85;100.00
71195;BME280;58908;51.426;7.714;2023-07-31T07:08:37;99099.88;;;16.89;100.00
71195;BME280;58908;51.426;7.714;2023-07-31T07:11:03;99091.84;;;16.98;100.00
71195;BME280;58908;51.426;7.714;2023-07-31T07:13:30;99101.56;;;16.90;100.00
71195;BME280;58908;51.426;7.714;2023-07-31T07:15:56;99108.03;;;16.78;100.00
71195;BME280;58908;51.426;7.714;2023-07-31T07:18:22;99107.75;;;16.91;100.00
71195;BME280;58908;51.426;7.714;2023-07-31T07:20:49;99095.53;;;16.88;100.00
71195;BME280;58908;51.426;7.714;2023-07-31T07:23:16;99087.69;;;16.96;100.00
71195;BME280;58908;51.426;7.714;2023-07-31T07:25:48;99087.94;;;17.02;100.00
71195;BME280;58908;51.426;7.714;2023-07-31T07:28:14;99092.94;;;17.15;100.00
71195;BME280;58908;51.426;7.714;2023-07-31T07:30:40;99083.34;;;16.95;100.00
71195;BME280;58908;51.426;7.714;2023-07-31T07:33:07;99079.94;;;17.02;100.00
71195;BME280;58908;51.426;7.714;2023-07-31T07:35:33;99088.38;;;16.98;100.00
71195;BME280;58908;51.426;7.714;2023-07-31T07:37:59;99075.47;;;16.93;100.00
71195;BME280;58908;51.426;7.714;2023-07-31T07:40:26;99079.53;;;17.07;100.00
71195;BME280;58908;51.426;7.714;2023-07-31T07:42:53;99083.31;;;17.04;100.00
71195;BME280;58908;51.426;7.714;2023-07-31T07:45:20;99082.91;;;16.99;100.00
71195;BME280;58908;51.426;7.714;2023-07-31T07:47:46;99089.34;;;16.97;100.00
71195;BME280;58908;51.426;7.714;2023-07-31T07:50:12;99093.25;;;17.12;100.00
71195;BME280;58908;51.426;7.714;2023-07-31T07:52:38;99088.22;;;17.09;100.00
71195;BME280;58908;51.426;7.714;2023-07-31T07:55:05;99080.59;;;17.23;100.00
71195;BME280;58908;51.426;7.714;2023-07-31T07:57:31;59404.56;;;-140.28;100.00
71195;BME280;58908;51.426;7.714;2023-07-31T07:59:59;59404.56;;;-140.28;100.00
71195;BME280;58908;51.426;7.714;2023-07-31T08:02:25;59404.56;;;-140.28;100.00
71195;BME280;58908;51.426;7.714;2023-07-31T08:04:52;59404.56;;;-140.28;100.00
71195;BME280;58908;51.426;7.714;2023-07-31T08:07:18;99085.28;;;17.02;100.00
71195;BME280;58908;51.426;7.714;2023-07-31T08:09:44;99087.69;;;16.87;100.00
71195;BME280;58908;51.426;7.714;2023-07-31T08:12:11;99074.66;;;16.65;100.00
71195;BME280;58908;51.426;7.714;2023-07-31T08:14:37;99086.44;;;16.72;100.00
71195;BME280;58908;51.426;7.714;2023-07-31T08:17:05;99081.69;;;16.66;100.00
71195;BME280;58908;51.426;7.714;2023-07-31T08:19:31;99101.16;;;16.66;100.00
71195;BME280;58908;51.426;7.714;2023-07-31T08:21:57;99096.53;;;16.68;100.00
71195;BME280;58908;51.426;7.714;2023-07-31T08:24:23;99092.63;;;16.72;100.00
71195;BME280;58908;51.426;7.714;2023-07-31T08:26:50;99092.59;;;16.91;100.00
71195;BME280;58908;51.426;7.714;2023-07-31T08:29:16;99091.63;;;16.83;100.00
71195;BME280;58908;51.426;7.714;2023-07-31T08:31:42;99084.19;;;16.86;100.00
71195;BME280;58908;51.426;7.714;2023-07-31T08:34:10;99077.34;;;16.74;100.00
71195;BME280;58908;51.426;7.714;2023-07-31T08:36:36;99068.78;;;16.90;100.00
71195;BME280;58908;51.426;7.714;2023-07-31T08:39:02;99086.00;;;16.95;100.00
71195;BME280;58908;51.426;7.714;2023-07-31T08:41:29;99075.59;;;16.92;100.00
71195;BME280;58908;51.426;7.714;2023-07-31T08:43:55;99081.28;;;17.16;100.00
71195;BME280;58908;51.426;7.714;2023-07-31T08:46:22;99072.19;;;17.18;100.00
71195;BME280;58908;51.426;7.714;2023-07-31T08:48:49;99065.53;;;17.32;100.00
71195;BME280;58908;51.426;7.714;2023-07-31T08:51:19;99066.59;;;17.12;100.00
71195;BME280;58908;51.426;7.714;2023-07-31T08:53:45;99062.25;;;17.11;100.00
71195;BME280;58908;51.426;7.714;2023-07-31T08:56:11;99064.56;;;17.33;100.00
71195;BME280;58908;51.426;7.714;2023-07-31T08:58:40;99059.53;;;17.30;100.00
71195;BME280;58908;51.426;7.714;2023-07-31T09:01:06;99058.56;;;17.58;100.00
71195;BME280;58908;51.426;7.714;2023-07-31T09:03:33;99053.47;;;17.64;100.00
71195;BME280;58908;51.426;7.714;2023-07-31T09:06:00;99043.34;;;17.95;100.00
71195;BME280;58908;51.426;7.714;2023-07-31T09:08:30;99046.28;;;18.54;100.00
71195;BME280;58908;51.426;7.714;2023-07-31T09:11:00;99049.25;;;18.51;100.00
71195;BME280;58908;51.426;7.714;2023-07-31T09:13:28;99039.47;;;18.24;100.00
71195;BME280;58908;51.426;7.714;2023-07-31T09:15:55;99051.16;;;18.23;100.00
71195;BME280;58908;51.426;7.714;2023-07-31T09:18:21;99054.72;;;18.14;100.00
71195;BME280;58908;51.426;7.714;2023-07-31T09:20:59;99055.13;;;18.37;100.00
71195;BME280;58908;51.426;7.714;2023-07-31T09:23:26;99051.31;;;18.57;100.00
71195;BME280;58908;51.426;7.714;2023-07-31T09:26:09;99051.22;;;18.31;100.00
71195;BME280;58908;51.426;7.714;2023-07-31T09:28:36;99051.25;;;17.87;100.00
71195;BME280;58908;51.426;7.714;2023-07-31T09:31:03;99053.84;;;17.96;100.00
71195;BME280;58908;51.426;7.714;2023-07-31T09:33:29;99062.81;;;17.78;100.00
71195;BME280;58908;51.426;7.714;2023-07-31T09:35:56;99067.81;;;17.36;100.00
71195;BME280;58908;51.426;7.714;2023-07-31T09:38:24;99063.09;;;17.02;100.00
71195;BME280;58908;51.426;7.714;2023-07-31T09:40:50;99061.75;;;16.79;100.00
71195;BME280;58908;51.426;7.714;2023-07-31T09:43:18;99067.19;;;16.96;100.00
71195;BME280;58908;51.426;7.714;2023-07-31T09:45:44;99057.97;;;16.82;100.00
71195;BME280;58908;51.426;7.714;2023-07-31T09:48:12;99069.25;;;17.12;100.00
71195;BME280;58908;51.426;7.714;2023-07-31T09:50:39;99063.84;;;17.40;100.00
71195;BME280;58908;51.426;7.714;2023-07-31T09:53:05;99059.94;;;17.35;100.00
71195;BME280;58908;51.426;7.714;2023-07-31T09:55:32;99042.38;;;17.42;100.00
71195;BME280;58908;51.426;7.714;2023-07-31T09:57:59;99048.34;;;17.53;100.00
71195;BME280;58908;51.426;7.714;2023-07-31T10:00:28;99042.03;;;17.54;100.00
71195;BME280;58908;51.426;7.714;2023-07-31T10:02:57;99037.16;;;17.50;100.00
71195;BME280;58908;51.426;7.714;2023-07-31T10:05:24;99036.81;;;17.35;100.00
71195;BME280;58908;51.426;7.714;2023-07-31T10:07:54;99029.91;;;17.60;100.00
71195;BME280;58908;51.426;7.714;2023-07-31T10:10:21;99028.59;;;17.91;100.00
71195;BME280;58908;51.426;7.714;2023-07-31T10:12:48;99029.16;;;17.94;100.00
71195;BME280;58908;51.426;7.714;2023-07-31T10:15:15;99021.56;;;18.17;100.00
71195;BME280;58908;51.426;7.714;2023-07-31T10:17:42;99026.38;;;18.31;100.00
71195;BME280;58908;51.426;7.714;2023-07-31T10:20:09;99029.00;;;17.78;100.00
71195;BME280;58908;51.426;7.714;2023-07-31T10:22:35;99032.34;;;17.80;100.00
71195;BME280;58908;51.426;7.714;2023-07-31T10:25:02;99030.88;;;17.68;100.00
71195;BME280;58908;51.426;7.714;2023-07-31T10:27:29;99038.66;;;17.52;100.00
71195;BME280;58908;51.426;7.714;2023-07-31T10:29:56;99031.56;;;17.70;100.00
71195;BME280;58908;51.426;7.714;2023-07-31T10:32:23;99032.50;;;17.52;100.00
71195;BME280;58908;51.426;7.714;2023-07-31T10:34:52;99032.44;;;17.61;100.00
71195;BME280;58908;51.426;7.714;2023-07-31T10:37:28;99045.13;;;17.77;100.00
71195;BME280;58908;51.426;7.714;2023-07-31T10:39:56;99031.56;;;17.70;100.00
71195;BME280;58908;51.426;7.714;2023-07-31T10:42:27;99032.25;;;17.72;100.00
71195;BME280;58908;51.426;7.714;2023-07-31T10:44:55;99036.75;;;17.72;100.00
71195;BME280;58908;51.426;7.714;2023-07-31T10:47:22;99029.66;;;17.80;100.00
71195;BME280;58908;51.426;7.714;2023-07-31T10:49:48;99032.03;;;17.83;100.00
71195;BME280;58908;51.426;7.714;2023-07-31T10:52:19;99036.03;;;17.97;100.00
71195;BME280;58908;51.426;7.714;2023-07-31T10:54:47;99022.59;;;17.89;100.00
71195;BME280;58908;51.426;7.714;2023-07-31T10:57:18;99028.81;;;17.80;100.00
71195;BME280;58908;51.426;7.714;2023-07-31T10:59:45;99036.34;;;18.11;100.00
71195;BME280;58908;51.426;7.714;2023-07-31T11:02:19;99030.59;;;17.89;100.00
71195;BME280;58908;51.426;7.714;2023-07-31T11:04:57;99031.94;;;17.75;100.00
71195;BME280;58908;51.426;7.714;2023-07-31T11:10:24;99034.75;;;17.47;100.00
71195;BME280;58908;51.426;7.714;2023-07-31T11:12:50;99030.34;;;17.28;100.00
71195;BME280;58908;51.426;7.714;2023-07-31T11:15:17;99027.38;;;17.41;100.00
71195;BME280;58908;51.426;7.714;2023-07-31T11:17:43;99025.56;;;17.32;100.00
71195;BME280;58908;51.426;7.714;2023-07-31T11:20:10;99032.53;;;17.42;100.00
71195;BME280;58908;51.426;7.714;2023-07-31T11:22:36;99028.44;;;17.48;100.00
71195;BME280;58908;51.426;7.714;2023-07-31T11:25:06;99033.53;;;17.41;100.00
71195;BME280;58908;51.426;7.714;2023-07-31T11:27:39;99032.16;;;17.37;100.00
71195;BME280;58908;51.426;7.714;2023-07-31T11:30:07;99039.63;;;17.15;100.00
71195;BME280;58908;51.426;7.714;2023-07-31T11:32:35;99037.09;;;17.23;100.00
71195;BME280;58908;51.426;7.714;2023-07-31T11:35:01;99029.78;;;17.25;100.00
71195;BME280;58908;51.426;7.714;2023-07-31T11:37:38;99039.75;;;17.23;100.00
71195;BME280;58908;51.426;7.714;2023-07-31T11:40:05;99045.97;;;17.14;100.00
71195;BME280;58908;51.426;7.714;2023-07-31T11:42:31;99030.94;;;17.13;100.00
71195;BME280;58908;51.426;7.714;2023-07-31T11:45:01;99032.94;;;17.11;100.00
71195;BME280;58908;51.426;7.714;2023-07-31T11:47:27;99033.03;;;17.19;100.00
71195;BME280;58908;51.426;7.714;2023-07-31T11:49:54;99021.78;;;17.25;100.00
71195;BME280;58908;51.426;7.714;2023-07-31T11:52:20;99016.97;;;17.38;100.00
71195;BME280;58908;51.426;7.714;2023-07-31T11:54:48;99010.19;;;17.53;100.00
71195;BME280;58908;51.426;7.714;2023-07-31T11:57:14;99008.88;;;17.57;100.00
71195;BME280;58908;51.426;7.714;2023-07-31T11:59:41;99010.72;;;17.56;100.00
71195;BME280;58908;51.426;7.714;2023-07-31T12:02:09;99006.38;;;17.55;100.00
71195;BME280;58908;51.426;7.714;2023-07-31T12:04:36;99001.81;;;17.65;100.00
71195;BME280;58908;51.426;7.714;2023-07-31T12:07:03;98992.78;;;17.93;100.00
71195;BME280;58908;51.426;7.714;2023-07-31T12:09:30;98990.69;;;17.87;100.00
71195;BME280;58908;51.426;7.714;2023-07-31T12:11:56;98989.50;;;17.99;100.00
71195;BME280;58908;51.426;7.714;2023-07-31T12:14:23;98986.91;;;18.07;100.00
71195;BME280;58908;51.426;7.714;2023-07-31T12:16:52;98995.91;;;18.06;100.00
71195;BME280;58908;51.426;7.714;2023-07-31T12:19:20;98993.16;;;17.81;100.00
71195;BME280;58908;51.426;7.714;2023-07-31T12:21:46;98997.13;;;17.77;100.00
71195;BME280;58908;51.426;7.714;2023-07-31T12:24:12;99003.03;;;17.71;100.00
71195;BME280;58908;51.426;7.714;2023-07-31T12:26:39;99006.44;;;17.90;100.00
71195;BME280;58908;51.426;7.714;2023-07-31T12:29:05;99003.53;;;18.01;100.00
71195;BME280;58908;51.426;7.714;2023-07-31T12:31:33;98994.69;;;17.83;100.00
71195;BME280;58908;51.426;7.714;2023-07-31T12:34:01;99005.38;;;18.01;100.00
71195;BME280;58908;51.426;7.714;2023-07-31T12:36:29;98992.63;;;18.12;100.00
71195;BME280;58908;51.426;7.714;2023-07-31T12:39:00;98985.84;;;18.18;100.00
71195;BME280;58908;51.426;7.714;2023-07-31T12:41:26;98988.97;;;18.13;100.00
71195;BME280;58908;51.426;7.714;2023-07-31T12:43:54;98996.97;;;18.13;100.00
71195;BME280;58908;51.426;7.714;2023-07-31T12:46:20;98989.34;;;18.36;100.00
71195;BME280;58908;51.426;7.714;2023-07-31T12:48:46;98975.69;;;18.56;100.00
71195;BME280;58908;51.426;7.714;2023-07-31T12:51:13;98973.91;;;18.98;100.00
71195;BME280;58908;51.426;7.714;2023-07-31T12:53:40;98964.06;;;19.24;100.00